Etusivu
METAR-TAF:

METAR-TAF

Lentoasemat :

Devils Lake, Pohjois-Dakota, Yhdysvallat

Leveyspiiri: 48-07N, Pituuspiiri: 098-55W, korkeus merenpinnasta: 443 m

Tämänhetkinen sää

Tämä raportti tehtiin 42 minuuttia sitten, kello 02.56 UTC
Tuuli 4 kn etelästä/kaakosta
Lämpötila 4°C
Kosteus 100%
Ilmanpaine 1004 hPa
Näkyvyys: 6.4 km
Pilvistä 600 ft:n korkeudessa
utua

METAR: KDVL 070256Z AUTO 15004KT 4SM BR OVC006 04/04 A2964 RMK AO2 SLP625 T00440039 53001

Aika: 22:38 (03:38 UTC)

Sääennuste

Tämä raportti tehtiin 31 minuuttia sitten, kello 03.07 UTC
Ennuste voimassa 07. päivästä klo 03 UTC - 07. päivään klo 24 UTC
Tuuli 8 kn kaakosta
Näkyvyys: 6.4 km
Pilvistä 700 ft:n korkeudessa
utua
From 07. päivästä klo 1000 UTC
Tuuli 10 kn lännestä/luoteesta
Näkyvyys: 10 km
Hajanaisia pilviä 4500 ft:n korkeudessa

TAF: KDVL 070307Z 0703/0724 13008KT 4SM BR OVC007 FM071000 30010KT P6SM SCT045

Säähavainnot ja -ennusteet yli 4000 lentoasemalta (METAR- ja TAF-raportit).

Käytössä olevat sääasemat on merkitty karttaan keltaisilla ja punaisilla pisteillä.

Aseta hiiri pisteen päälle nähdäksesi sääaseman nimen.

Klikkaa sitten nähdäksesi säähavainnot ja -ennusteet.

Kartan vaihtaminen: klikkaa mustalla rastilla varustettuja vihreitä pisteitä, niin voit zoomata sisään; viivalla varustettua vihreää pistettä, niin voit zoomata ulos tai vihreitä nuolia, niin pääset viereisille kartoille.


METAR-TAF: